sensor_id;sensor_type;location;lat;lon;timestamp;P1;durP1;ratioP1;P2;durP2;ratioP2
19149;SDS011;9707;49.158;8.632;2022-12-07T00:01:23;6.90;;;5.57;;
19149;SDS011;9707;49.158;8.632;2022-12-07T00:03:57;7.70;;;5.47;;
19149;SDS011;9707;49.158;8.632;2022-12-07T00:06:29;8.98;;;6.22;;
19149;SDS011;9707;49.158;8.632;2022-12-07T00:09:05;10.45;;;5.97;;
19149;SDS011;9707;49.158;8.632;2022-12-07T00:11:32;7.43;;;5.72;;
19149;SDS011;9707;49.158;8.632;2022-12-07T00:13:58;7.78;;;6.10;;
19149;SDS011;9707;49.158;8.632;2022-12-07T00:16:27;8.98;;;5.88;;
19149;SDS011;9707;49.158;8.632;2022-12-07T00:18:54;8.45;;;5.88;;
19149;SDS011;9707;49.158;8.632;2022-12-07T00:21:21;9.45;;;5.68;;
19149;SDS011;9707;49.158;8.632;2022-12-07T00:23:48;6.78;;;5.45;;
19149;SDS011;9707;49.158;8.632;2022-12-07T00:26:16;7.93;;;5.63;;
19149;SDS011;9707;49.158;8.632;2022-12-07T00:28:46;7.57;;;5.60;;
19149;SDS011;9707;49.158;8.632;2022-12-07T00:31:16;6.53;;;5.47;;
19149;SDS011;9707;49.158;8.632;2022-12-07T00:33:44;8.90;;;6.90;;
19149;SDS011;9707;49.158;8.632;2022-12-07T00:36:11;8.65;;;6.28;;
19149;SDS011;9707;49.158;8.632;2022-12-07T00:38:38;8.68;;;6.20;;
19149;SDS011;9707;49.158;8.632;2022-12-07T00:41:05;9.88;;;6.22;;
19149;SDS011;9707;49.158;8.632;2022-12-07T00:43:38;8.27;;;5.93;;
19149;SDS011;9707;49.158;8.632;2022-12-07T00:46:05;7.93;;;6.00;;
19149;SDS011;9707;49.158;8.632;2022-12-07T00:48:30;8.27;;;5.85;;
19149;SDS011;9707;49.158;8.632;2022-12-07T00:50:55;7.13;;;5.85;;
19149;SDS011;9707;49.158;8.632;2022-12-07T00:53:21;9.55;;;6.00;;
19149;SDS011;9707;49.158;8.632;2022-12-07T00:55:46;9.02;;;6.10;;
19149;SDS011;9707;49.158;8.632;2022-12-07T00:58:12;7.75;;;5.78;;
19149;SDS011;9707;49.158;8.632;2022-12-07T01:00:38;8.38;;;5.70;;
19149;SDS011;9707;49.158;8.632;2022-12-07T01:03:05;7.07;;;5.82;;
19149;SDS011;9707;49.158;8.632;2022-12-07T01:05:31;8.93;;;5.93;;
19149;SDS011;9707;49.158;8.632;2022-12-07T01:07:56;8.95;;;5.43;;
19149;SDS011;9707;49.158;8.632;2022-12-07T01:10:22;8.93;;;6.30;;
19149;SDS011;9707;49.158;8.632;2022-12-07T01:12:47;7.93;;;5.47;;
19149;SDS011;9707;49.158;8.632;2022-12-07T01:15:12;7.85;;;5.65;;
19149;SDS011;9707;49.158;8.632;2022-12-07T01:17:38;8.30;;;5.25;;
19149;SDS011;9707;49.158;8.632;2022-12-07T01:20:03;8.13;;;4.82;;
19149;SDS011;9707;49.158;8.632;2022-12-07T01:22:29;7.32;;;4.85;;
19149;SDS011;9707;49.158;8.632;2022-12-07T01:24:54;6.43;;;5.07;;
19149;SDS011;9707;49.158;8.632;2022-12-07T01:27:20;7.07;;;5.03;;
19149;SDS011;9707;49.158;8.632;2022-12-07T01:29:45;8.75;;;5.55;;
19149;SDS011;9707;49.158;8.632;2022-12-07T01:32:10;8.65;;;5.68;;
19149;SDS011;9707;49.158;8.632;2022-12-07T01:34:36;8.70;;;5.60;;
19149;SDS011;9707;49.158;8.632;2022-12-07T01:37:01;7.03;;;5.07;;
19149;SDS011;9707;49.158;8.632;2022-12-07T01:39:26;5.97;;;5.10;;
19149;SDS011;9707;49.158;8.632;2022-12-07T01:41:52;7.20;;;5.68;;
19149;SDS011;9707;49.158;8.632;2022-12-07T01:46:45;6.10;;;5.45;;
19149;SDS011;9707;49.158;8.632;2022-12-07T01:49:16;7.57;;;5.35;;
19149;SDS011;9707;49.158;8.632;2022-12-07T01:51:46;9.18;;;5.13;;
19149;SDS011;9707;49.158;8.632;2022-12-07T01:54:13;6.70;;;5.07;;
19149;SDS011;9707;49.158;8.632;2022-12-07T01:56:42;7.47;;;5.47;;
19149;SDS011;9707;49.158;8.632;2022-12-07T01:59:12;6.05;;;5.10;;
19149;SDS011;9707;49.158;8.632;2022-12-07T02:01:38;6.53;;;5.03;;
19149;SDS011;9707;49.158;8.632;2022-12-07T02:04:03;6.70;;;5.38;;
19149;SDS011;9707;49.158;8.632;2022-12-07T02:06:30;6.15;;;4.93;;
19149;SDS011;9707;49.158;8.632;2022-12-07T02:08:56;8.30;;;5.18;;
19149;SDS011;9707;49.158;8.632;2022-12-07T02:11:21;8.55;;;5.35;;
19149;SDS011;9707;49.158;8.632;2022-12-07T02:13:46;7.57;;;5.55;;
19149;SDS011;9707;49.158;8.632;2022-12-07T02:21:57;9.98;;;5.45;;
19149;SDS011;9707;49.158;8.632;2022-12-07T02:32:16;8.43;;;6.35;;
19149;SDS011;9707;49.158;8.632;2022-12-07T02:35:06;11.02;;;6.63;;
19149;SDS011;9707;49.158;8.632;2022-12-07T02:42:45;9.38;;;6.28;;
19149;SDS011;9707;49.158;8.632;2022-12-07T02:45:16;8.50;;;6.65;;
19149;SDS011;9707;49.158;8.632;2022-12-07T02:47:43;8.50;;;6.72;;
19149;SDS011;9707;49.158;8.632;2022-12-07T02:50:11;8.50;;;6.38;;
19149;SDS011;9707;49.158;8.632;2022-12-07T02:52:36;10.20;;;6.57;;
19149;SDS011;9707;49.158;8.632;2022-12-07T02:55:02;9.15;;;6.72;;
19149;SDS011;9707;49.158;8.632;2022-12-07T03:00:04;9.45;;;6.70;;
19149;SDS011;9707;49.158;8.632;2022-12-07T03:08:15;9.10;;;6.68;;
19149;SDS011;9707;49.158;8.632;2022-12-07T03:13:37;9.85;;;7.45;;
19149;SDS011;9707;49.158;8.632;2022-12-07T03:18:54;9.20;;;6.78;;
19149;SDS011;9707;49.158;8.632;2022-12-07T03:21:23;9.88;;;6.70;;
19149;SDS011;9707;49.158;8.632;2022-12-07T03:23:54;7.93;;;6.32;;
19149;SDS011;9707;49.158;8.632;2022-12-07T03:26:22;9.95;;;6.30;;
19149;SDS011;9707;49.158;8.632;2022-12-07T03:28:55;11.65;;;6.78;;
19149;SDS011;9707;49.158;8.632;2022-12-07T03:31:26;8.55;;;6.80;;
19149;SDS011;9707;49.158;8.632;2022-12-07T03:36:32;8.43;;;6.70;;
19149;SDS011;9707;49.158;8.632;2022-12-07T03:39:11;7.85;;;6.35;;
19149;SDS011;9707;49.158;8.632;2022-12-07T03:41:44;9.10;;;6.72;;
19149;SDS011;9707;49.158;8.632;2022-12-07T03:44:10;8.57;;;6.53;;
19149;SDS011;9707;49.158;8.632;2022-12-07T03:49:19;9.15;;;6.65;;
19149;SDS011;9707;49.158;8.632;2022-12-07T03:54:27;9.20;;;6.63;;
19149;SDS011;9707;49.158;8.632;2022-12-07T03:56:57;7.90;;;6.22;;
19149;SDS011;9707;49.158;8.632;2022-12-07T03:59:24;9.43;;;6.38;;
19149;SDS011;9707;49.158;8.632;2022-12-07T04:01:55;9.18;;;7.05;;
19149;SDS011;9707;49.158;8.632;2022-12-07T04:04:24;7.18;;;6.47;;
19149;SDS011;9707;49.158;8.632;2022-12-07T04:06:50;7.63;;;6.68;;
19149;SDS011;9707;49.158;8.632;2022-12-07T04:09:15;8.63;;;6.57;;
19149;SDS011;9707;49.158;8.632;2022-12-07T04:11:41;9.63;;;6.95;;
19149;SDS011;9707;49.158;8.632;2022-12-07T04:14:07;8.73;;;6.82;;
19149;SDS011;9707;49.158;8.632;2022-12-07T04:16:45;9.82;;;6.60;;
19149;SDS011;9707;49.158;8.632;2022-12-07T04:19:11;10.75;;;6.28;;
19149;SDS011;9707;49.158;8.632;2022-12-07T04:21:36;8.68;;;6.80;;
19149;SDS011;9707;49.158;8.632;2022-12-07T04:24:01;9.65;;;6.90;;
19149;SDS011;9707;49.158;8.632;2022-12-07T04:26:27;9.27;;;6.40;;
19149;SDS011;9707;49.158;8.632;2022-12-07T04:28:52;9.10;;;6.75;;
19149;SDS011;9707;49.158;8.632;2022-12-07T04:31:18;8.55;;;6.47;;
19149;SDS011;9707;49.158;8.632;2022-12-07T04:33:43;8.27;;;6.43;;
19149;SDS011;9707;49.158;8.632;2022-12-07T04:36:08;9.82;;;6.63;;
19149;SDS011;9707;49.158;8.632;2022-12-07T04:38:33;9.30;;;6.63;;
19149;SDS011;9707;49.158;8.632;2022-12-07T04:41:03;9.23;;;6.28;;
19149;SDS011;9707;49.158;8.632;2022-12-07T04:43:30;11.60;;;7.15;;
19149;SDS011;9707;49.158;8.632;2022-12-07T04:45:55;11.50;;;9.27;;
19149;SDS011;9707;49.158;8.632;2022-12-07T04:48:20;10.45;;;7.03;;
19149;SDS011;9707;49.158;8.632;2022-12-07T04:50:47;8.80;;;6.80;;
19149;SDS011;9707;49.158;8.632;2022-12-07T04:53:14;9.50;;;7.07;;
19149;SDS011;9707;49.158;8.632;2022-12-07T04:55:39;9.10;;;7.18;;
19149;SDS011;9707;49.158;8.632;2022-12-07T04:58:04;11.38;;;7.30;;
19149;SDS011;9707;49.158;8.632;2022-12-07T05:00:30;8.48;;;6.72;;
19149;SDS011;9707;49.158;8.632;2022-12-07T05:02:55;9.18;;;7.05;;
19149;SDS011;9707;49.158;8.632;2022-12-07T05:05:20;8.43;;;6.55;;
19149;SDS011;9707;49.158;8.632;2022-12-07T05:07:46;9.77;;;6.72;;
19149;SDS011;9707;49.158;8.632;2022-12-07T05:10:11;9.48;;;6.93;;
19149;SDS011;9707;49.158;8.632;2022-12-07T05:12:36;8.90;;;6.65;;
19149;SDS011;9707;49.158;8.632;2022-12-07T05:15:01;11.48;;;6.72;;
19149;SDS011;9707;49.158;8.632;2022-12-07T05:17:27;9.38;;;6.85;;
19149;SDS011;9707;49.158;8.632;2022-12-07T05:19:52;12.77;;;6.72;;
19149;SDS011;9707;49.158;8.632;2022-12-07T05:22:17;9.98;;;7.25;;
19149;SDS011;9707;49.158;8.632;2022-12-07T05:24:43;8.05;;;6.57;;
19149;SDS011;9707;49.158;8.632;2022-12-07T05:27:08;8.10;;;6.57;;
19149;SDS011;9707;49.158;8.632;2022-12-07T05:29:33;10.50;;;7.47;;
19149;SDS011;9707;49.158;8.632;2022-12-07T05:31:58;8.50;;;6.68;;
19149;SDS011;9707;49.158;8.632;2022-12-07T05:34:24;10.63;;;6.68;;
19149;SDS011;9707;49.158;8.632;2022-12-07T05:36:49;10.25;;;6.93;;
19149;SDS011;9707;49.158;8.632;2022-12-07T05:39:15;9.77;;;6.93;;
19149;SDS011;9707;49.158;8.632;2022-12-07T05:41:40;10.05;;;6.80;;
19149;SDS011;9707;49.158;8.632;2022-12-07T05:44:24;10.68;;;7.97;;
19149;SDS011;9707;49.158;8.632;2022-12-07T05:46:49;9.77;;;7.20;;
19149;SDS011;9707;49.158;8.632;2022-12-07T05:49:14;10.68;;;7.13;;
19149;SDS011;9707;49.158;8.632;2022-12-07T05:51:40;10.93;;;7.13;;
19149;SDS011;9707;49.158;8.632;2022-12-07T05:54:05;9.05;;;7.20;;
19149;SDS011;9707;49.158;8.632;2022-12-07T05:56:30;8.98;;;6.85;;
19149;SDS011;9707;49.158;8.632;2022-12-07T05:58:56;9.18;;;7.40;;
19149;SDS011;9707;49.158;8.632;2022-12-07T06:01:40;11.05;;;7.75;;
19149;SDS011;9707;49.158;8.632;2022-12-07T06:04:05;9.85;;;7.35;;
19149;SDS011;9707;49.158;8.632;2022-12-07T06:06:30;10.32;;;7.35;;
19149;SDS011;9707;49.158;8.632;2022-12-07T06:08:56;10.98;;;7.57;;
19149;SDS011;9707;49.158;8.632;2022-12-07T06:11:21;9.80;;;7.30;;
19149;SDS011;9707;49.158;8.632;2022-12-07T06:14:04;10.32;;;7.75;;
19149;SDS011;9707;49.158;8.632;2022-12-07T06:16:30;10.00;;;7.32;;
19149;SDS011;9707;49.158;8.632;2022-12-07T06:18:55;9.50;;;7.32;;
19149;SDS011;9707;49.158;8.632;2022-12-07T06:21:20;9.32;;;6.80;;
19149;SDS011;9707;49.158;8.632;2022-12-07T06:23:46;9.15;;;7.53;;
19149;SDS011;9707;49.158;8.632;2022-12-07T06:26:12;10.05;;;7.57;;
19149;SDS011;9707;49.158;8.632;2022-12-07T06:28:38;10.50;;;7.50;;
19149;SDS011;9707;49.158;8.632;2022-12-07T06:31:03;12.07;;;8.02;;
19149;SDS011;9707;49.158;8.632;2022-12-07T06:33:28;10.52;;;7.55;;
19149;SDS011;9707;49.158;8.632;2022-12-07T06:35:54;9.25;;;7.25;;
19149;SDS011;9707;49.158;8.632;2022-12-07T06:38:20;11.57;;;8.20;;
19149;SDS011;9707;49.158;8.632;2022-12-07T06:40:46;9.70;;;7.43;;
19149;SDS011;9707;49.158;8.632;2022-12-07T06:43:11;11.25;;;7.25;;
19149;SDS011;9707;49.158;8.632;2022-12-07T06:45:37;9.85;;;7.30;;
19149;SDS011;9707;49.158;8.632;2022-12-07T06:48:02;9.98;;;7.32;;
19149;SDS011;9707;49.158;8.632;2022-12-07T06:50:27;11.45;;;7.72;;
19149;SDS011;9707;49.158;8.632;2022-12-07T06:52:53;13.05;;;8.63;;
19149;SDS011;9707;49.158;8.632;2022-12-07T06:55:18;12.93;;;8.57;;
19149;SDS011;9707;49.158;8.632;2022-12-07T06:57:43;12.10;;;7.88;;
19149;SDS011;9707;49.158;8.632;2022-12-07T07:00:09;11.90;;;8.90;;
19149;SDS011;9707;49.158;8.632;2022-12-07T07:02:35;10.50;;;7.95;;
19149;SDS011;9707;49.158;8.632;2022-12-07T07:05:00;10.27;;;8.02;;
19149;SDS011;9707;49.158;8.632;2022-12-07T07:07:25;11.85;;;7.18;;
19149;SDS011;9707;49.158;8.632;2022-12-07T07:09:50;10.68;;;7.75;;
19149;SDS011;9707;49.158;8.632;2022-12-07T07:12:16;11.52;;;8.20;;
19149;SDS011;9707;49.158;8.632;2022-12-07T07:14:41;12.40;;;8.50;;
19149;SDS011;9707;49.158;8.632;2022-12-07T07:17:08;12.88;;;8.50;;
19149;SDS011;9707;49.158;8.632;2022-12-07T07:19:33;10.15;;;7.40;;
19149;SDS011;9707;49.158;8.632;2022-12-07T07:21:58;12.27;;;8.05;;
19149;SDS011;9707;49.158;8.632;2022-12-07T07:24:23;11.35;;;7.97;;
19149;SDS011;9707;49.158;8.632;2022-12-07T07:26:49;11.23;;;7.82;;
19149;SDS011;9707;49.158;8.632;2022-12-07T07:29:14;9.57;;;7.55;;
19149;SDS011;9707;49.158;8.632;2022-12-07T07:31:39;10.82;;;7.28;;
19149;SDS011;9707;49.158;8.632;2022-12-07T07:34:05;9.73;;;7.18;;
19149;SDS011;9707;49.158;8.632;2022-12-07T07:36:30;9.43;;;7.75;;
19149;SDS011;9707;49.158;8.632;2022-12-07T07:38:55;10.15;;;7.10;;
19149;SDS011;9707;49.158;8.632;2022-12-07T07:41:20;10.82;;;7.80;;
19149;SDS011;9707;49.158;8.632;2022-12-07T07:43:46;11.10;;;7.95;;
19149;SDS011;9707;49.158;8.632;2022-12-07T07:46:11;9.50;;;7.00;;
19149;SDS011;9707;49.158;8.632;2022-12-07T07:48:36;10.77;;;7.07;;
19149;SDS011;9707;49.158;8.632;2022-12-07T07:51:04;10.27;;;6.95;;
19149;SDS011;9707;49.158;8.632;2022-12-07T07:53:31;9.75;;;7.53;;
19149;SDS011;9707;49.158;8.632;2022-12-07T07:55:56;10.60;;;7.60;;
19149;SDS011;9707;49.158;8.632;2022-12-07T07:58:22;10.25;;;6.95;;
19149;SDS011;9707;49.158;8.632;2022-12-07T08:00:47;9.80;;;7.30;;
19149;SDS011;9707;49.158;8.632;2022-12-07T08:03:12;10.00;;;7.00;;
19149;SDS011;9707;49.158;8.632;2022-12-07T08:05:38;13.82;;;8.23;;
19149;SDS011;9707;49.158;8.632;2022-12-07T08:08:03;9.93;;;7.18;;
19149;SDS011;9707;49.158;8.632;2022-12-07T08:10:29;9.13;;;6.82;;
19149;SDS011;9707;49.158;8.632;2022-12-07T08:12:56;11.77;;;7.35;;
19149;SDS011;9707;49.158;8.632;2022-12-07T08:15:39;9.65;;;6.95;;
19149;SDS011;9707;49.158;8.632;2022-12-07T08:18:06;11.38;;;7.10;;
19149;SDS011;9707;49.158;8.632;2022-12-07T08:20:32;10.18;;;7.22;;
19149;SDS011;9707;49.158;8.632;2022-12-07T08:22:58;13.77;;;8.73;;
19149;SDS011;9707;49.158;8.632;2022-12-07T08:25:24;10.32;;;6.72;;
19149;SDS011;9707;49.158;8.632;2022-12-07T08:27:50;12.13;;;8.13;;
19149;SDS011;9707;49.158;8.632;2022-12-07T08:30:16;10.85;;;7.50;;
19149;SDS011;9707;49.158;8.632;2022-12-07T08:32:43;9.45;;;7.43;;
19149;SDS011;9707;49.158;8.632;2022-12-07T08:35:09;9.85;;;6.72;;
19149;SDS011;9707;49.158;8.632;2022-12-07T08:37:35;15.55;;;7.40;;
19149;SDS011;9707;49.158;8.632;2022-12-07T08:40:01;14.07;;;7.75;;
19149;SDS011;9707;49.158;8.632;2022-12-07T08:42:26;11.68;;;7.68;;
19149;SDS011;9707;49.158;8.632;2022-12-07T08:44:54;9.45;;;7.25;;
19149;SDS011;9707;49.158;8.632;2022-12-07T08:47:21;11.15;;;7.68;;
19149;SDS011;9707;49.158;8.632;2022-12-07T08:49:47;9.18;;;7.30;;
19149;SDS011;9707;49.158;8.632;2022-12-07T08:52:14;11.30;;;7.22;;
19149;SDS011;9707;49.158;8.632;2022-12-07T08:54:40;8.95;;;7.25;;
19149;SDS011;9707;49.158;8.632;2022-12-07T08:57:07;10.55;;;7.43;;
19149;SDS011;9707;49.158;8.632;2022-12-07T08:59:34;9.32;;;6.85;;
19149;SDS011;9707;49.158;8.632;2022-12-07T09:02:00;10.68;;;6.53;;
19149;SDS011;9707;49.158;8.632;2022-12-07T09:04:26;10.75;;;7.40;;
19149;SDS011;9707;49.158;8.632;2022-12-07T09:06:51;10.65;;;7.72;;
19149;SDS011;9707;49.158;8.632;2022-12-07T09:09:17;11.43;;;8.27;;
19149;SDS011;9707;49.158;8.632;2022-12-07T09:11:42;11.00;;;7.70;;
19149;SDS011;9707;49.158;8.632;2022-12-07T09:14:07;9.68;;;6.85;;
19149;SDS011;9707;49.158;8.632;2022-12-07T09:16:32;9.38;;;6.78;;
19149;SDS011;9707;49.158;8.632;2022-12-07T09:18:58;11.02;;;7.85;;
19149;SDS011;9707;49.158;8.632;2022-12-07T09:21:23;13.15;;;7.90;;
19149;SDS011;9707;49.158;8.632;2022-12-07T09:23:49;9.55;;;7.30;;
19149;SDS011;9707;49.158;8.632;2022-12-07T09:26:14;9.52;;;7.45;;
19149;SDS011;9707;49.158;8.632;2022-12-07T09:28:39;10.82;;;7.07;;
19149;SDS011;9707;49.158;8.632;2022-12-07T09:31:05;9.05;;;6.30;;
19149;SDS011;9707;49.158;8.632;2022-12-07T09:33:31;16.00;;;10.63;;
19149;SDS011;9707;49.158;8.632;2022-12-07T09:35:57;8.05;;;6.82;;
19149;SDS011;9707;49.158;8.632;2022-12-07T09:38:22;9.13;;;7.05;;
19149;SDS011;9707;49.158;8.632;2022-12-07T09:40:51;8.75;;;6.05;;
19149;SDS011;9707;49.158;8.632;2022-12-07T09:43:17;10.43;;;6.30;;
19149;SDS011;9707;49.158;8.632;2022-12-07T09:45:45;9.35;;;6.43;;
19149;SDS011;9707;49.158;8.632;2022-12-07T09:48:46;9.13;;;6.47;;
19149;SDS011;9707;49.158;8.632;2022-12-07T09:51:17;10.05;;;6.38;;
19149;SDS011;9707;49.158;8.632;2022-12-07T09:53:45;8.27;;;6.38;;
19149;SDS011;9707;49.158;8.632;2022-12-07T09:56:11;9.18;;;7.00;;
19149;SDS011;9707;49.158;8.632;2022-12-07T09:58:39;11.15;;;7.25;;
19149;SDS011;9707;49.158;8.632;2022-12-07T10:03:40;9.40;;;6.63;;
19149;SDS011;9707;49.158;8.632;2022-12-07T10:06:13;9.43;;;6.80;;
19149;SDS011;9707;49.158;8.632;2022-12-07T10:08:39;9.50;;;7.10;;
19149;SDS011;9707;49.158;8.632;2022-12-07T10:11:06;9.60;;;6.90;;
19149;SDS011;9707;49.158;8.632;2022-12-07T10:13:39;10.23;;;6.40;;
19149;SDS011;9707;49.158;8.632;2022-12-07T10:18:49;10.30;;;7.25;;
19149;SDS011;9707;49.158;8.632;2022-12-07T10:21:15;9.38;;;6.45;;
19149;SDS011;9707;49.158;8.632;2022-12-07T10:26:32;9.50;;;6.40;;
19149;SDS011;9707;49.158;8.632;2022-12-07T10:29:02;11.23;;;6.97;;
19149;SDS011;9707;49.158;8.632;2022-12-07T10:31:45;10.43;;;7.72;;
19149;SDS011;9707;49.158;8.632;2022-12-07T10:34:21;8.35;;;6.07;;
19149;SDS011;9707;49.158;8.632;2022-12-07T10:36:49;12.25;;;7.15;;
19149;SDS011;9707;49.158;8.632;2022-12-07T10:39:24;12.43;;;7.18;;
19149;SDS011;9707;49.158;8.632;2022-12-07T10:41:53;8.95;;;6.13;;
19149;SDS011;9707;49.158;8.632;2022-12-07T10:44:25;9.90;;;7.07;;
19149;SDS011;9707;49.158;8.632;2022-12-07T10:52:42;9.10;;;6.85;;
19149;SDS011;9707;49.158;8.632;2022-12-07T10:55:22;9.70;;;6.72;;
19149;SDS011;9707;49.158;8.632;2022-12-07T10:58:02;11.45;;;6.93;;
19149;SDS011;9707;49.158;8.632;2022-12-07T11:14:23;9.73;;;6.55;;
19149;SDS011;9707;49.158;8.632;2022-12-07T11:16:58;9.35;;;6.88;;
19149;SDS011;9707;49.158;8.632;2022-12-07T11:19:32;10.50;;;7.10;;
19149;SDS011;9707;49.158;8.632;2022-12-07T11:22:32;17.40;;;10.65;;
19149;SDS011;9707;49.158;8.632;2022-12-07T11:28:31;9.25;;;6.85;;
19149;SDS011;9707;49.158;8.632;2022-12-07T11:31:16;10.25;;;6.85;;
19149;SDS011;9707;49.158;8.632;2022-12-07T11:33:49;9.65;;;7.15;;
19149;SDS011;9707;49.158;8.632;2022-12-07T11:36:30;11.00;;;8.07;;
19149;SDS011;9707;49.158;8.632;2022-12-07T11:39:10;8.90;;;6.70;;
19149;SDS011;9707;49.158;8.632;2022-12-07T11:41:45;9.77;;;6.85;;
19149;SDS011;9707;49.158;8.632;2022-12-07T11:44:23;7.95;;;6.68;;
19149;SDS011;9707;49.158;8.632;2022-12-07T11:46:58;9.95;;;6.85;;
19149;SDS011;9707;49.158;8.632;2022-12-07T11:49:37;10.98;;;7.13;;
19149;SDS011;9707;49.158;8.632;2022-12-07T11:52:15;11.60;;;7.20;;
19149;SDS011;9707;49.158;8.632;2022-12-07T11:54:51;11.05;;;7.50;;
19149;SDS011;9707;49.158;8.632;2022-12-07T11:57:27;9.25;;;7.35;;
19149;SDS011;9707;49.158;8.632;2022-12-07T12:00:05;10.13;;;7.65;;
19149;SDS011;9707;49.158;8.632;2022-12-07T12:02:39;9.10;;;6.68;;
19149;SDS011;9707;49.158;8.632;2022-12-07T12:05:21;9.60;;;7.10;;
19149;SDS011;9707;49.158;8.632;2022-12-07T12:07:51;8.68;;;6.60;;
19149;SDS011;9707;49.158;8.632;2022-12-07T12:10:36;10.55;;;6.85;;
19149;SDS011;9707;49.158;8.632;2022-12-07T12:19:19;10.80;;;6.80;;
19149;SDS011;9707;49.158;8.632;2022-12-07T12:21:56;9.93;;;6.22;;
19149;SDS011;9707;49.158;8.632;2022-12-07T12:24:30;8.65;;;6.78;;
19149;SDS011;9707;49.158;8.632;2022-12-07T12:27:15;11.85;;;6.93;;
19149;SDS011;9707;49.158;8.632;2022-12-07T12:30:00;9.57;;;7.07;;
19149;SDS011;9707;49.158;8.632;2022-12-07T12:32:32;12.20;;;7.38;;
19149;SDS011;9707;49.158;8.632;2022-12-07T12:37:46;9.10;;;6.78;;
19149;SDS011;9707;49.158;8.632;2022-12-07T12:42:58;14.68;;;6.88;;
19149;SDS011;9707;49.158;8.632;2022-12-07T12:45:25;8.32;;;6.68;;
19149;SDS011;9707;49.158;8.632;2022-12-07T12:47:54;9.88;;;6.80;;
19149;SDS011;9707;49.158;8.632;2022-12-07T12:53:04;10.55;;;7.43;;
19149;SDS011;9707;49.158;8.632;2022-12-07T13:00:45;9.65;;;6.70;;
19149;SDS011;9707;49.158;8.632;2022-12-07T13:03:22;10.52;;;7.15;;
19149;SDS011;9707;49.158;8.632;2022-12-07T13:08:52;12.27;;;7.03;;
19149;SDS011;9707;49.158;8.632;2022-12-07T13:11:20;10.88;;;7.10;;
19149;SDS011;9707;49.158;8.632;2022-12-07T13:13:57;11.85;;;7.03;;
19149;SDS011;9707;49.158;8.632;2022-12-07T13:16:57;9.90;;;6.57;;
19149;SDS011;9707;49.158;8.632;2022-12-07T13:19:53;9.38;;;6.93;;
19149;SDS011;9707;49.158;8.632;2022-12-07T13:22:34;11.57;;;7.60;;
19149;SDS011;9707;49.158;8.632;2022-12-07T13:25:09;10.70;;;7.38;;
19149;SDS011;9707;49.158;8.632;2022-12-07T13:27:43;11.27;;;7.03;;
19149;SDS011;9707;49.158;8.632;2022-12-07T13:30:16;9.55;;;6.70;;
19149;SDS011;9707;49.158;8.632;2022-12-07T13:32:51;11.77;;;7.13;;
19149;SDS011;9707;49.158;8.632;2022-12-07T13:35:28;12.27;;;7.55;;
19149;SDS011;9707;49.158;8.632;2022-12-07T13:37:54;12.68;;;7.63;;
19149;SDS011;9707;49.158;8.632;2022-12-07T13:40:21;9.57;;;6.70;;
19149;SDS011;9707;49.158;8.632;2022-12-07T13:42:47;9.18;;;7.05;;
19149;SDS011;9707;49.158;8.632;2022-12-07T13:45:23;8.45;;;6.50;;
19149;SDS011;9707;49.158;8.632;2022-12-07T13:48:22;8.55;;;6.28;;
19149;SDS011;9707;49.158;8.632;2022-12-07T13:51:02;10.98;;;7.00;;
19149;SDS011;9707;49.158;8.632;2022-12-07T13:53:28;13.40;;;7.07;;
19149;SDS011;9707;49.158;8.632;2022-12-07T13:55:56;8.98;;;6.60;;
19149;SDS011;9707;49.158;8.632;2022-12-07T13:58:23;10.55;;;7.40;;
19149;SDS011;9707;49.158;8.632;2022-12-07T14:00:49;12.10;;;8.52;;
19149;SDS011;9707;49.158;8.632;2022-12-07T14:05:41;9.80;;;6.88;;
19149;SDS011;9707;49.158;8.632;2022-12-07T14:16:05;14.02;;;7.57;;
19149;SDS011;9707;49.158;8.632;2022-12-07T14:18:52;10.90;;;7.15;;
19149;SDS011;9707;49.158;8.632;2022-12-07T14:21:20;10.02;;;6.93;;
19149;SDS011;9707;49.158;8.632;2022-12-07T14:24:10;10.10;;;6.72;;
19149;SDS011;9707;49.158;8.632;2022-12-07T14:26:46;9.60;;;6.80;;
19149;SDS011;9707;49.158;8.632;2022-12-07T14:31:54;9.20;;;6.32;;
19149;SDS011;9707;49.158;8.632;2022-12-07T14:34:20;13.98;;;6.30;;
19149;SDS011;9707;49.158;8.632;2022-12-07T14:36:46;9.57;;;6.45;;
19149;SDS011;9707;49.158;8.632;2022-12-07T14:39:12;9.55;;;7.05;;
19149;SDS011;9707;49.158;8.632;2022-12-07T14:41:37;8.80;;;5.95;;
19149;SDS011;9707;49.158;8.632;2022-12-07T14:44:21;9.75;;;6.60;;
19149;SDS011;9707;49.158;8.632;2022-12-07T14:46:48;11.73;;;7.22;;
19149;SDS011;9707;49.158;8.632;2022-12-07T14:49:14;9.75;;;6.85;;
19149;SDS011;9707;49.158;8.632;2022-12-07T14:51:40;11.18;;;6.78;;
19149;SDS011;9707;49.158;8.632;2022-12-07T14:54:09;10.65;;;7.47;;
19149;SDS011;9707;49.158;8.632;2022-12-07T14:56:40;18.45;;;8.50;;
19149;SDS011;9707;49.158;8.632;2022-12-07T14:59:06;14.52;;;8.98;;
19149;SDS011;9707;49.158;8.632;2022-12-07T15:01:32;16.35;;;8.45;;
19149;SDS011;9707;49.158;8.632;2022-12-07T15:03:57;9.27;;;6.70;;
19149;SDS011;9707;49.158;8.632;2022-12-07T15:06:22;11.98;;;7.30;;
19149;SDS011;9707;49.158;8.632;2022-12-07T15:08:48;10.45;;;6.95;;
19149;SDS011;9707;49.158;8.632;2022-12-07T15:11:14;10.30;;;7.68;;
19149;SDS011;9707;49.158;8.632;2022-12-07T15:13:40;8.00;;;6.68;;
19149;SDS011;9707;49.158;8.632;2022-12-07T15:16:24;10.20;;;6.95;;
19149;SDS011;9707;49.158;8.632;2022-12-07T15:18:49;10.23;;;6.60;;
19149;SDS011;9707;49.158;8.632;2022-12-07T15:21:15;8.48;;;5.85;;
19149;SDS011;9707;49.158;8.632;2022-12-07T15:23:41;10.38;;;5.80;;
19149;SDS011;9707;49.158;8.632;2022-12-07T15:26:07;10.70;;;6.53;;
19149;SDS011;9707;49.158;8.632;2022-12-07T15:28:34;9.32;;;6.60;;
19149;SDS011;9707;49.158;8.632;2022-12-07T15:30:59;11.23;;;6.72;;
19149;SDS011;9707;49.158;8.632;2022-12-07T15:33:25;10.65;;;6.55;;
19149;SDS011;9707;49.158;8.632;2022-12-07T15:35:50;11.07;;;6.20;;
19149;SDS011;9707;49.158;8.632;2022-12-07T15:38:15;9.43;;;6.28;;
19149;SDS011;9707;49.158;8.632;2022-12-07T15:40:41;9.10;;;5.75;;
19149;SDS011;9707;49.158;8.632;2022-12-07T15:43:08;8.45;;;5.90;;
19149;SDS011;9707;49.158;8.632;2022-12-07T15:45:54;10.50;;;7.20;;
19149;SDS011;9707;49.158;8.632;2022-12-07T15:48:19;12.60;;;6.97;;
19149;SDS011;9707;49.158;8.632;2022-12-07T15:50:44;13.45;;;7.88;;
19149;SDS011;9707;49.158;8.632;2022-12-07T15:53:10;14.43;;;7.57;;
19149;SDS011;9707;49.158;8.632;2022-12-07T15:55:35;9.13;;;6.53;;
19149;SDS011;9707;49.158;8.632;2022-12-07T15:58:03;11.00;;;6.20;;
19149;SDS011;9707;49.158;8.632;2022-12-07T16:00:28;7.85;;;5.90;;
19149;SDS011;9707;49.158;8.632;2022-12-07T16:02:54;11.45;;;6.32;;
19149;SDS011;9707;49.158;8.632;2022-12-07T16:05:19;8.27;;;6.18;;
19149;SDS011;9707;49.158;8.632;2022-12-07T16:07:44;8.02;;;5.72;;
19149;SDS011;9707;49.158;8.632;2022-12-07T16:10:11;9.18;;;5.90;;
19149;SDS011;9707;49.158;8.632;2022-12-07T16:12:36;7.13;;;6.00;;
19149;SDS011;9707;49.158;8.632;2022-12-07T16:15:02;7.30;;;5.57;;
19149;SDS011;9707;49.158;8.632;2022-12-07T16:17:27;9.15;;;5.90;;
19149;SDS011;9707;49.158;8.632;2022-12-07T16:19:52;7.80;;;6.00;;
19149;SDS011;9707;49.158;8.632;2022-12-07T16:22:18;8.98;;;6.90;;
19149;SDS011;9707;49.158;8.632;2022-12-07T16:24:43;9.65;;;6.70;;
19149;SDS011;9707;49.158;8.632;2022-12-07T16:27:08;7.88;;;5.93;;
19149;SDS011;9707;49.158;8.632;2022-12-07T16:29:34;9.32;;;6.38;;
19149;SDS011;9707;49.158;8.632;2022-12-07T16:31:59;9.55;;;6.38;;
19149;SDS011;9707;49.158;8.632;2022-12-07T16:34:25;7.65;;;6.28;;
19149;SDS011;9707;49.158;8.632;2022-12-07T16:36:50;9.27;;;6.60;;
19149;SDS011;9707;49.158;8.632;2022-12-07T16:39:17;9.07;;;6.35;;
19149;SDS011;9707;49.158;8.632;2022-12-07T16:41:43;11.93;;;6.97;;
19149;SDS011;9707;49.158;8.632;2022-12-07T16:44:09;9.73;;;7.43;;
19149;SDS011;9707;49.158;8.632;2022-12-07T16:46:37;12.57;;;7.32;;
19149;SDS011;9707;49.158;8.632;2022-12-07T16:49:03;9.18;;;6.88;;
19149;SDS011;9707;49.158;8.632;2022-12-07T16:51:29;8.93;;;6.93;;
19149;SDS011;9707;49.158;8.632;2022-12-07T16:53:54;9.30;;;6.72;;